createdAt,value
2022-12-14T00:03:17.356Z,88.36
2022-12-14T00:08:18.641Z,88.45
2022-12-14T00:13:18.956Z,88.52
2022-12-14T00:18:22.499Z,88.54
2022-12-14T00:23:23.435Z,88.57
2022-12-14T00:28:22.850Z,88.61
2022-12-14T00:33:23.643Z,88.64
2022-12-14T00:38:23.963Z,88.65
2022-12-14T00:43:26.376Z,88.74
2022-12-14T00:48:27.065Z,88.72
2022-12-14T00:53:27.199Z,88.80
2022-12-14T00:58:28.531Z,88.81
2022-12-14T01:03:28.708Z,88.84
2022-12-14T01:08:35.593Z,88.79
2022-12-14T01:13:37.707Z,88.70
2022-12-14T01:18:41.037Z,88.65
2022-12-14T01:23:40.862Z,88.58
2022-12-14T01:28:39.769Z,88.51
2022-12-14T01:33:39.332Z,88.42
2022-12-14T01:38:39.773Z,88.33
2022-12-14T01:43:54.185Z,88.27
2022-12-14T01:48:57.897Z,88.21
2022-12-14T01:53:59.621Z,88.14
2022-12-14T01:59:03.799Z,88.10
2022-12-14T02:04:06.747Z,88.05
2022-12-14T02:09:15.208Z,88.03
2022-12-14T02:14:14.741Z,88.01
2022-12-14T02:19:14.776Z,87.99
2022-12-14T02:24:44.567Z,87.96
2022-12-14T02:30:17.062Z,87.95
2022-12-14T02:35:35.240Z,87.95
2022-12-14T02:40:44.988Z,87.94
2022-12-14T02:45:50.567Z,87.94
2022-12-14T02:50:56.398Z,87.93
2022-12-14T02:55:59.060Z,87.91
2022-12-14T03:01:00.426Z,87.91
2022-12-14T03:06:14.862Z,87.94
2022-12-14T03:11:22.695Z,87.97
2022-12-14T03:16:30.752Z,87.98
2022-12-14T03:21:38.700Z,88.00
2022-12-14T03:26:47.739Z,87.99
2022-12-14T03:31:55.733Z,87.97
2022-12-14T03:37:08.694Z,87.95
2022-12-14T03:42:19.818Z,87.98
2022-12-14T03:47:46.335Z,87.98
2022-12-14T03:52:56.455Z,88.00
2022-12-14T03:58:15.928Z,88.01
2022-12-14T04:03:26.653Z,88.01
2022-12-14T04:08:38.971Z,88.01
2022-12-14T04:14:02.612Z,88.01
2022-12-14T04:19:09.930Z,88.01
2022-12-14T04:24:37.133Z,88.05
2022-12-14T04:30:00.925Z,88.11
2022-12-14T04:35:06.651Z,88.14
2022-12-14T04:40:13.321Z,88.16
2022-12-14T04:45:21.837Z,88.18
2022-12-14T04:50:31.381Z,88.22
2022-12-14T04:55:37.933Z,88.25
2022-12-14T05:00:47.451Z,88.29
2022-12-14T05:05:58.324Z,88.31
2022-12-14T05:11:30.510Z,88.36
2022-12-14T05:16:29.424Z,88.40
2022-12-14T05:21:45.722Z,88.43
2022-12-14T05:26:45.997Z,88.42
2022-12-14T05:31:49.413Z,88.38
2022-12-14T05:36:51.271Z,88.32
2022-12-14T05:41:49.744Z,88.19
2022-12-14T05:46:49.379Z,88.03
2022-12-14T05:51:49.449Z,87.94
2022-12-14T05:56:49.254Z,87.83
2022-12-14T06:01:50.805Z,87.75
2022-12-14T06:06:50.745Z,87.60
2022-12-14T06:11:50.387Z,87.64
2022-12-14T06:16:50.386Z,87.68
2022-12-14T06:21:49.871Z,87.71
2022-12-14T06:26:51.761Z,87.75
2022-12-14T06:31:51.664Z,87.79
2022-12-14T06:36:51.303Z,87.85
2022-12-14T06:41:54.078Z,87.93
2022-12-14T06:46:52.547Z,88.06
2022-12-14T06:51:51.812Z,88.19
2022-12-14T06:56:52.384Z,88.26
2022-12-14T07:01:54.868Z,88.26
2022-12-14T07:06:57.229Z,88.23
2022-12-14T07:12:00.722Z,88.24
2022-12-14T07:16:59.416Z,88.31
2022-12-14T07:22:02.537Z,88.33
2022-12-14T07:27:02.441Z,88.35
2022-12-14T07:32:01.354Z,88.42
2022-12-14T07:37:02.091Z,88.45
2022-12-14T07:42:04.037Z,88.44
2022-12-14T07:47:03.336Z,88.43
2022-12-14T07:52:03.100Z,88.50
2022-12-14T07:57:04.174Z,88.47
2022-12-14T08:02:03.022Z,88.48
2022-12-14T08:07:02.573Z,88.46
2022-12-14T08:12:02.735Z,88.53
2022-12-14T08:17:01.969Z,88.58
2022-12-14T08:22:02.271Z,88.57
2022-12-14T08:27:02.412Z,88.54
2022-12-14T08:32:02.927Z,88.53
2022-12-14T08:37:04.262Z,88.52
2022-12-14T08:42:04.547Z,88.56
2022-12-14T08:47:03.659Z,88.56
2022-12-14T08:52:04.937Z,88.51
2022-12-14T08:57:06.326Z,88.48
2022-12-14T09:02:05.448Z,88.46
2022-12-14T09:07:05.109Z,88.43
2022-12-14T09:12:06.947Z,88.36
2022-12-14T09:17:07.849Z,88.33
2022-12-14T09:22:06.878Z,88.30
2022-12-14T09:27:07.236Z,88.24
2022-12-14T09:32:09.000Z,88.21
2022-12-14T09:37:10.085Z,88.18
2022-12-14T09:42:39.548Z,88.09
2022-12-14T09:47:52.196Z,88.06
2022-12-14T09:52:55.290Z,87.99
2022-12-14T09:57:59.837Z,87.60
2022-12-14T10:03:24.982Z,87.58
2022-12-14T10:08:31.387Z,87.52
2022-12-14T10:13:46.725Z,87.36
2022-12-14T10:19:11.431Z,87.25
2022-12-14T10:24:22.204Z,87.15
2022-12-14T10:29:32.703Z,86.82
2022-12-14T10:34:34.992Z,86.54
2022-12-14T10:39:49.395Z,86.32
2022-12-14T10:45:39.044Z,86.10
2022-12-14T10:50:37.358Z,85.84
2022-12-14T10:55:44.222Z,85.63
2022-12-14T11:00:43.806Z,84.83
2022-12-14T11:05:53.549Z,84.67
2022-12-14T11:11:18.394Z,84.24
2022-12-14T11:16:43.874Z,83.78
2022-12-14T11:21:44.531Z,83.61
2022-12-14T11:26:46.213Z,83.17
2022-12-14T11:31:53.075Z,83.24
2022-12-14T11:36:53.449Z,81.73
2022-12-14T11:42:02.238Z,79.82
2022-12-14T11:47:13.035Z,78.23
2022-12-14T11:52:18.431Z,79.17
2022-12-14T11:57:29.396Z,78.35
2022-12-14T12:02:34.929Z,76.63
2022-12-14T12:07:39.569Z,77.22
2022-12-14T12:12:52.407Z,77.57
2022-12-14T12:18:02.442Z,76.65
2022-12-14T12:23:09.923Z,74.44
2022-12-14T12:28:21.313Z,73.13
2022-12-14T12:33:41.923Z,74.13
2022-12-14T12:38:57.939Z,74.75
2022-12-14T12:44:06.605Z,74.38
2022-12-14T12:49:14.710Z,75.54
2022-12-14T12:54:24.674Z,73.83
2022-12-14T12:59:35.363Z,74.08
2022-12-14T13:04:42.066Z,71.45
2022-12-14T13:09:49.571Z,69.15
2022-12-14T13:14:52.997Z,68.75
2022-12-14T13:19:54.906Z,69.42
2022-12-14T13:24:59.572Z,68.65
2022-12-14T13:30:19.433Z,68.58
2022-12-14T13:35:38.925Z,69.25
2022-12-14T13:41:17.448Z,69.77
2022-12-14T13:46:25.681Z,71.10
2022-12-14T13:51:33.283Z,71.30
2022-12-14T13:56:37.065Z,71.91
2022-12-14T14:02:00.194Z,72.82
2022-12-14T14:07:50.321Z,72.91
2022-12-14T14:12:50.579Z,73.15
2022-12-14T14:17:54.120Z,73.49
2022-12-14T14:23:38.293Z,74.11
2022-12-14T14:28:39.335Z,74.67
2022-12-14T14:33:48.907Z,75.66
2022-12-14T14:38:49.138Z,75.89
2022-12-14T14:43:54.879Z,75.81
2022-12-14T14:48:58.283Z,75.99
2022-12-14T14:55:06.967Z,76.22
2022-12-14T15:00:00.835Z,76.44
2022-12-14T15:05:24.809Z,76.56
2022-12-14T15:10:37.543Z,76.80
2022-12-14T15:15:45.398Z,77.04
2022-12-14T15:20:51.661Z,77.63
2022-12-14T15:26:00.194Z,78.04
2022-12-14T15:31:02.404Z,78.19
2022-12-14T15:36:10.082Z,78.44
2022-12-14T15:41:19.111Z,78.45
2022-12-14T15:46:25.691Z,78.46
2022-12-14T15:51:29.165Z,78.53
2022-12-14T15:56:36.252Z,78.64
2022-12-14T16:01:54.802Z,78.83
2022-12-14T16:07:07.854Z,79.07
2022-12-14T16:12:18.975Z,79.08
2022-12-14T16:17:33.135Z,79.19
2022-12-14T16:22:35.126Z,79.44
2022-12-14T16:27:49.758Z,79.66
2022-12-14T16:32:53.068Z,79.77
2022-12-14T16:37:57.395Z,80.03
2022-12-14T16:42:57.004Z,80.24
2022-12-14T16:48:15.317Z,81.02
2022-12-14T16:53:31.016Z,81.41
2022-12-14T16:58:31.253Z,81.94
2022-12-14T17:03:32.826Z,82.03
2022-12-14T17:08:34.914Z,82.23
2022-12-14T17:13:34.913Z,82.60
2022-12-14T17:18:39.146Z,82.87
2022-12-14T17:23:42.910Z,82.97
2022-12-14T17:28:43.143Z,83.10
2022-12-14T17:33:43.129Z,83.12
2022-12-14T17:38:44.556Z,82.93
2022-12-14T17:43:49.983Z,83.07
2022-12-14T17:48:53.598Z,83.16
2022-12-14T17:53:55.231Z,83.37
2022-12-14T17:58:54.918Z,83.33
2022-12-14T18:03:55.034Z,83.20
2022-12-14T18:08:56.132Z,83.32
2022-12-14T18:13:57.153Z,83.27
2022-12-14T18:18:58.325Z,83.41
2022-12-14T18:23:58.688Z,83.41
2022-12-14T18:28:59.426Z,83.45
2022-12-14T18:34:07.826Z,83.48
2022-12-14T18:39:07.791Z,83.51
2022-12-14T18:44:07.378Z,83.52
2022-12-14T18:49:08.118Z,83.60
2022-12-14T18:54:08.024Z,83.63
2022-12-14T18:59:08.662Z,83.79
2022-12-14T19:04:09.121Z,83.80
2022-12-14T19:09:09.669Z,83.81
2022-12-14T19:14:10.273Z,83.85
2022-12-14T19:19:09.776Z,83.73
2022-12-14T19:24:13.733Z,83.69
2022-12-14T19:29:20.586Z,83.71
2022-12-14T19:34:37.502Z,83.71
2022-12-14T19:39:38.517Z,83.73
2022-12-14T19:44:42.328Z,83.72
2022-12-14T19:49:42.033Z,83.72
2022-12-14T19:54:43.110Z,83.69
2022-12-14T19:59:42.909Z,83.63
2022-12-14T20:04:43.251Z,83.61
2022-12-14T20:09:47.084Z,83.55
2022-12-14T20:14:46.487Z,83.54
2022-12-14T20:19:48.915Z,83.55
2022-12-14T20:24:50.288Z,83.61
2022-12-14T20:29:49.205Z,83.67
2022-12-14T20:34:48.915Z,83.80
2022-12-14T20:39:49.019Z,83.78
2022-12-14T20:44:49.527Z,83.82
2022-12-14T20:49:49.050Z,84.06
2022-12-14T20:54:51.079Z,84.07
2022-12-14T20:59:51.331Z,84.22
2022-12-14T21:04:51.136Z,84.30
2022-12-14T21:09:49.923Z,84.31
2022-12-14T21:14:52.354Z,84.25
2022-12-14T21:19:52.357Z,84.26
2022-12-14T21:25:08.116Z,84.23
2022-12-14T21:30:13.091Z,84.30
2022-12-14T21:35:17.752Z,84.37
2022-12-14T21:40:32.173Z,84.38
2022-12-14T21:45:31.875Z,84.35
2022-12-14T21:50:31.713Z,84.37
2022-12-14T21:55:32.197Z,84.41
2022-12-14T22:00:32.143Z,84.39
2022-12-14T22:05:31.884Z,84.50
2022-12-14T22:10:31.091Z,84.45
2022-12-14T22:15:30.116Z,84.45
2022-12-14T22:20:29.655Z,84.42
2022-12-14T22:25:30.582Z,84.45
2022-12-14T22:30:31.857Z,84.47
2022-12-14T22:35:31.466Z,84.45
2022-12-14T22:40:35.484Z,84.47
2022-12-14T22:45:35.955Z,84.46
2022-12-14T22:50:36.263Z,84.45
2022-12-14T22:55:40.440Z,84.45
2022-12-14T23:00:39.162Z,84.44
2022-12-14T23:05:39.473Z,84.45
2022-12-14T23:10:55.477Z,84.47
2022-12-14T23:16:14.789Z,84.49
2022-12-14T23:21:33.666Z,84.51
2022-12-14T23:26:51.622Z,84.53
2022-12-14T23:32:07.821Z,84.53
2022-12-14T23:37:24.344Z,84.50
2022-12-14T23:42:41.505Z,84.50
2022-12-14T23:47:58.325Z,84.53
2022-12-14T23:53:14.907Z,84.55
2022-12-14T23:58:32.584Z,84.58
